Time;durP1;ratioP1;P1;durP2;ratioP2;P2;SDS_P1;SDS_P2;PMS_P1;PMS_P2;Temp;Humidity;BMP_temperature;BMP_pressure;BME280_temperature;BME280_humidity;BME280_pressure;Samples;Min_cycle;Max_cycle;Signal;HPM_P1;HPM_P2
2022/08/20 00:01:17;;;;;;;;;19.75;19.25;;;;;27.74;54.86;100335.84;146602;579;46914;-70
2022/08/20 00:04:13;;;;;;;;;21.75;19.00;;;;;27.71;56.59;100297.75;146605;573;46021;-68
2022/08/20 00:07:21;;;;;;;;;18.00;18.00;;;;;27.55;56.53;100283.97;146601;579;46012;-68
2022/08/20 00:10:18;;;;;;;;;17.50;16.25;;;;;27.52;56.70;100292.88;146602;718;46021;-70
2022/08/20 00:13:20;;;;;;;;;23.00;22.50;;;;;27.50;57.68;100291.19;146605;597;46915;-69
2022/08/20 00:16:19;;;;;;;;;21.00;20.00;;;;;27.49;57.97;100292.97;146627;622;45020;-73
2022/08/20 00:19:22;;;;;;;;;;;;;;;;;;;;;
2022/08/20 00:22:23;;;;;;;;;21.25;20.00;;;;;27.54;58.85;100292.84;146623;572;46012;-74
2022/08/20 00:25:22;;;;;;;;;19.50;18.25;;;;;27.56;58.58;100288.34;146629;592;45012;-75
2022/08/20 00:28:17;;;;;;;;;22.50;19.25;;;;;26.84;57.62;100162.37;146626;617;45020;-72
2022/08/20 00:31:27;;;;;;;;;20.50;18.50;;;;;27.69;57.36;100303.09;146624;629;45915;-74
2022/08/20 00:34:25;;;;;;;;;19.00;19.00;;;;;27.76;59.03;100301.19;146629;577;45020;-75
2022/08/20 00:37:28;;;;;;;;;21.75;19.50;;;;;27.70;59.51;100298.66;146627;629;46012;-75
2022/08/20 00:40:52;;;;;;;;;20.50;19.50;;;;;25.30;58.01;99888.75;146623;595;47010;-70
2022/08/20 00:44:07;;;;;;;;;22.00;20.25;;;;;27.52;59.23;100290.22;146619;658;45914;-68
2022/08/20 00:47:05;;;;;;;;;20.50;18.50;;;;;27.51;59.77;100293.81;146627;566;46011;-69
2022/08/20 00:49:58;;;;;;;;;18.75;17.75;;;;;27.56;59.16;100297.22;146625;589;46915;-73
2022/08/20 00:52:57;;;;;;;;;24.75;22.75;;;;;27.61;58.58;100300.66;146622;591;47010;-70
2022/08/20 00:55:59;;;;;;;;;17.75;17.75;;;;;26.70;58.12;100144.97;146627;600;45032;-70
2022/08/20 00:59:10;;;;;;;;;21.50;18.50;;;;;27.66;59.41;100316.50;146628;623;45020;-69
2022/08/20 01:02:10;;;;;;;;;17.00;16.75;;;;;27.66;59.79;100313.84;146627;601;45915;-70
2022/08/20 01:05:10;;;;;;;;;20.75;18.75;;;;;27.61;62.21;100307.78;146627;638;46020;-68
2022/08/20 01:08:16;;;;;;;;;21.75;19.00;;;;;27.54;61.58;100301.72;146626;565;45017;-71
2022/08/20 01:11:32;;;;;;;;;19.75;18.50;;;;;25.56;59.03;100000.50;146626;631;45021;-71
2022/08/20 01:14:44;;;;;;;;;20.00;18.25;;;;;27.33;60.03;100312.91;146622;581;45016;-73
2022/08/20 01:18:17;;;;;;;;;20.50;17.25;;;;;25.01;58.57;99937.06;146606;601;47020;-69
2022/08/20 01:21:14;;;;;;;;;19.00;18.00;;;;;27.23;59.55;100324.66;146604;635;46016;-72
2022/08/20 01:24:23;;;;;;;;;20.25;19.75;;;;;27.19;59.06;100307.91;146602;564;46021;-72
2022/08/20 01:27:27;;;;;;;;;19.50;18.25;;;;;27.17;59.97;100304.41;146604;591;47012;-73
2022/08/20 01:30:23;;;;;;;;;18.75;17.00;;;;;27.13;60.16;100300.94;146606;605;46021;-71
2022/08/20 01:33:33;;;;;;;;;19.25;19.25;;;;;27.10;61.01;100294.78;146601;680;46032;-75
2022/08/20 01:36:45;;;;;;;;;;;;;;;;;;;;;
2022/08/20 01:39:44;;;;;;;;;22.50;20.25;;;;;26.96;63.13;100295.09;146604;591;46013;-74
2022/08/20 01:42:50;;;;;;;;;20.25;19.25;;;;;26.91;59.66;100283.69;146605;643;46020;-70
2022/08/20 01:45:45;;;;;;;;;21.00;20.50;;;;;26.93;61.14;100288.06;146599;566;46016;-73
2022/08/20 01:48:41;;;;;;;;;22.00;20.25;;;;;26.98;63.22;100284.41;146603;621;46020;-74
2022/08/20 01:51:37;;;;;;;;;23.50;23.00;;;;;26.94;61.90;100263.19;146600;574;46016;-74
2022/08/20 01:54:41;;;;;;;;;21.25;19.75;;;;;27.07;62.93;100268.22;146603;569;46010;-74
2022/08/20 01:57:35;;;;;;;;;19.25;18.50;;;;;27.12;62.10;100267.22;146602;623;46028;-72
2022/08/20 02:00:36;;;;;;;;;20.25;19.25;;;;;27.15;63.11;100269.84;146604;564;46031;-73
2022/08/20 02:03:36;;;;;;;;;20.00;20.00;;;;;27.16;61.37;100270.72;146603;595;46016;-77
2022/08/20 02:06:42;;;;;;;;;21.00;19.00;;;;;27.18;62.15;100259.12;146602;563;46020;-74
2022/08/20 02:09:49;;;;;;;;;24.00;23.00;;;;;27.22;60.03;100267.03;146601;584;46017;-77
2022/08/20 02:13:07;;;;;;;;;18.75;18.00;;;;;25.20;61.03;99922.53;146601;553;46010;-73
2022/08/20 02:16:10;;;;;;;;;19.50;18.50;;;;;27.25;62.31;100272.28;146603;588;46014;-75
2022/08/20 02:19:27;;;;;;;;;23.00;23.00;;;;;27.22;62.63;100267.03;146608;679;46020;-72
2022/08/20 02:22:55;;;;;;;;;21.00;19.25;;;;;27.16;64.03;100260.06;146601;564;46017;-71
2022/08/20 02:25:53;;;;;;;;;23.25;22.25;;;;;27.04;63.42;100262.97;146603;629;46020;-72
2022/08/20 02:28:58;;;;;;;;;;;;;;;;;;;;;
2022/08/20 02:31:53;;;;;;;;;22.00;20.75;;;;;26.97;63.75;100280.87;146607;566;46021;-79
2022/08/20 02:35:01;;;;;;;;;;;;;;;;;;;;;
2022/08/20 02:38:02;;;;;;;;;22.50;20.50;;;;;27.03;63.67;100293.16;146600;576;47011;-79
2022/08/20 02:40:56;;;;;;;;;20.75;18.50;;;;;27.06;63.93;100286.00;146602;596;46016;-79
2022/08/20 02:43:50;;;;;;;;;23.00;21.75;;;;;27.05;64.34;100286.03;146604;587;46020;-76
2022/08/20 02:46:46;;;;;;;;;22.50;20.50;;;;;27.00;64.16;100290.59;146600;610;46017;-78
2022/08/20 02:49:38;;;;;;;;;19.75;18.25;;;;;26.93;65.29;100296.03;146602;616;46020;-80
2022/08/20 02:52:34;;;;;;;;;26.75;24.75;;;;;26.92;63.99;100302.28;146599;592;46016;-72
2022/08/20 02:55:30;;;;;;;;;21.00;19.50;;;;;26.85;65.67;100300.66;146606;576;46020;-75
2022/08/20 02:58:27;;;;;;;;;20.50;19.75;;;;;26.76;65.06;100289.34;146603;566;46014;-74
2022/08/20 03:01:37;;;;;;;;;21.50;20.50;;;;;26.69;65.77;100284.16;146603;583;46021;-74
2022/08/20 03:04:33;;;;;;;;;22.75;22.50;;;;;26.69;65.34;100291.28;146603;565;46012;-73
2022/08/20 03:07:30;;;;;;;;;20.75;20.75;;;;;26.67;65.68;100296.62;146604;618;46021;-69
2022/08/20 03:10:34;;;;;;;;;19.50;19.00;;;;;26.69;64.40;100286.81;146603;624;46016;-75
2022/08/20 03:13:58;;;;;;;;;20.50;17.50;;;;;26.75;64.09;100282.28;146606;598;47020;-73
2022/08/20 03:16:56;;;;;;;;;22.50;21.25;;;;;26.78;65.50;100285.75;146597;699;46012;-73
2022/08/20 03:19:59;;;;;;;;;22.50;20.00;;;;;26.76;62.69;100284.94;146603;632;46020;-76
2022/08/20 03:22:54;;;;;;;;;21.25;21.25;;;;;26.77;64.58;100288.47;146601;582;46013;-77
2022/08/20 03:25:57;;;;;;;;;18.75;18.75;;;;;26.77;63.56;100305.28;146603;628;46020;-73
2022/08/20 03:29:00;;;;;;;;;19.75;19.25;;;;;26.83;65.01;100304.28;146601;595;46012;-77
2022/08/20 03:32:02;;;;;;;;;21.25;19.75;;;;;24.50;61.55;99905.38;146604;593;46020;-76
2022/08/20 03:35:02;;;;;;;;;25.50;23.25;;;;;26.90;65.39;100314.75;146600;578;46016;-72
2022/08/20 03:38:02;;;;;;;;;22.75;22.00;;;;;26.91;63.71;100312.94;146605;593;46010;-74
2022/08/20 03:40:58;;;;;;;;;23.50;22.50;;;;;26.93;64.49;100316.47;146606;583;46012;-75
2022/08/20 03:43:58;;;;;;;;;25.00;22.25;;;;;26.92;64.33;100315.59;146609;570;45020;-76
2022/08/20 03:46:55;;;;;;;;;25.75;24.25;;;;;26.91;64.46;100312.94;146604;581;46016;-74
2022/08/20 03:49:50;;;;;;;;;27.50;23.00;;;;;26.88;64.37;100311.22;146605;658;46020;-74
2022/08/20 03:53:05;;;;;;;;;26.75;24.00;;;;;26.87;64.17;100309.47;146601;648;46017;-72
2022/08/20 03:55:59;;;;;;;;;21.25;19.75;;;;;26.90;65.77;100306.75;146606;564;46010;-71
2022/08/20 03:58:52;;;;;;;;;21.25;19.00;;;;;26.91;65.05;100305.84;146600;587;46017;-73
2022/08/20 04:01:53;;;;;;;;;21.75;20.50;;;;;26.94;64.02;100308.44;146610;571;46010;-71
2022/08/20 04:05:06;;;;;;;;;22.50;19.25;;;;;27.00;64.84;100309.22;146606;685;46012;-73
2022/08/20 04:08:02;;;;;;;;;20.00;19.25;;;;;27.12;60.17;100300.94;146604;577;46010;-71
2022/08/20 04:11:03;;;;;;;;;15.75;15.00;;;;;27.32;59.97;100308.47;146600;694;46016;-72
2022/08/20 04:14:01;;;;;;;;;16.75;15.75;;;;;27.51;59.57;100298.25;146604;601;46021;-74
2022/08/20 04:17:06;;;;;;;;;21.00;20.00;;;;;27.70;56.66;100304.00;146603;601;46915;-81
2022/08/20 04:20:11;;;;;;;;;18.00;17.25;;;;;27.86;56.10;100292.91;146607;597;46020;-75
2022/08/20 04:23:07;;;;;;;;;19.25;18.25;;;;;28.03;56.06;100295.13;146606;731;46012;-72
2022/08/20 04:26:16;;;;;;;;;;;;;;;;;;;;;
2022/08/20 04:29:17;;;;;;;;;20.00;18.50;;;;;28.33;54.43;100303.19;146600;597;46017;-70
2022/08/20 04:32:29;;;;;;;;;21.25;20.25;;;;;26.37;52.93;99952.56;146606;575;46010;-71
2022/08/20 04:35:27;;;;;;;;;18.25;18.25;;;;;27.71;53.20;100172.56;146606;595;46014;-73
2022/08/20 04:38:27;;;;;;;;;18.00;18.00;;;;;28.65;52.84;100309.41;146601;633;46021;-69
2022/08/20 04:41:28;;;;;;;;;19.75;18.75;;;;;28.74;53.30;100311.78;146597;618;46016;-68
2022/08/20 04:44:25;;;;;;;;;15.75;14.75;;;;;28.80;53.38;100311.59;146605;731;46021;-68
2022/08/20 04:47:45;;;;;;;;;20.50;19.25;;;;;26.87;52.98;99976.09;146599;593;46016;-67
2022/08/20 04:50:47;;;;;;;;;18.75;17.75;;;;;29.05;53.08;100324.22;146607;694;46021;-70
2022/08/20 04:53:49;;;;;;;;;24.25;22.25;;;;;29.18;54.60;100318.44;146604;654;46012;-71
2022/08/20 04:56:42;;;;;;;;;19.75;18.75;;;;;29.30;54.49;100324.31;146605;573;46012;-71
2022/08/20 04:59:40;;;;;;;;;22.25;20.25;;;;;29.33;55.28;100319.75;146608;571;46017;-73
2022/08/20 05:02:37;;;;;;;;;23.25;21.25;;;;;29.35;54.18;100319.72;146607;569;46020;-73
2022/08/20 05:05:34;;;;;;;;;19.50;19.50;;;;;29.41;54.72;100322.19;146601;585;46012;-74
2022/08/20 05:08:29;;;;;;;;;22.00;19.00;;;;;29.52;55.07;100321.81;146608;646;46012;-71
2022/08/20 05:11:29;;;;;;;;;19.50;18.25;;;;;29.58;53.92;100318.94;146602;581;46014;-69
2022/08/20 05:14:22;;;;;;;;;23.25;21.50;;;;;29.76;54.81;100334.38;146607;625;47011;-69
2022/08/20 05:17:32;;;;;;;;;;;;;;;;;;;;;
2022/08/20 05:20:38;;;;;;;;;19.75;19.25;;;;;29.94;53.67;100335.56;146604;619;45021;-70
2022/08/20 05:23:39;;;;;;;;;20.25;18.75;;;;;30.00;53.57;100335.34;146604;602;46012;-71
2022/08/20 05:26:34;;;;;;;;;15.50;12.50;;;;;29.24;52.57;100194.53;146604;614;46020;-71
2022/08/20 05:29:28;;;;;;;;;24.25;22.75;;;;;30.17;51.67;100340.06;146602;586;46013;-70
2022/08/20 05:32:29;;;;;;;;;20.00;19.25;;;;;30.22;51.86;100338.16;146607;598;46010;-71
2022/08/20 05:35:26;;;;;;;;;21.50;19.00;;;;;29.03;52.16;100118.72;146603;609;46012;-69
2022/08/20 05:38:38;;;;;;;;;;;;;;;;;;;;;
2022/08/20 05:41:37;;;;;;;;;20.25;19.00;;;;;30.49;51.70;100335.37;146600;573;46012;-71
2022/08/20 05:44:31;;;;;;;;;17.25;16.50;;;;;29.73;51.60;100182.16;146608;570;45021;-74
2022/08/20 05:47:27;;;;;;;;;22.50;21.00;;;;;30.70;51.08;100329.22;146603;635;46915;-76
2022/08/20 05:50:22;;;;;;;;;18.75;17.75;;;;;30.82;51.07;100335.94;146602;679;46021;-71
2022/08/20 05:53:17;;;;;;;;;16.75;16.00;;;;;30.93;51.55;100328.34;146601;578;46033;-69
2022/08/20 05:56:22;;;;;;;;;22.50;20.50;;;;;29.11;50.52;99988.53;146603;569;46020;-71
2022/08/20 05:59:19;;;;;;;;;18.00;17.75;;;;;31.23;51.03;100334.28;146606;625;46013;-72
2022/08/20 06:05:36;;;;;;;;;20.00;19.00;;;;;30.63;51.13;100177.88;146606;774;46012;-78
2022/08/20 06:08:29;;;;;;;;;20.50;20.00;;;;;31.69;50.21;100329.75;146602;625;47010;-75
2022/08/20 06:11:26;;;;;;;;;23.25;23.00;;;;;31.82;48.64;100327.41;146603;614;45017;-78
2022/08/20 06:14:21;;;;;;;;;23.00;20.25;;;;;31.84;47.64;100309.47;146602;604;46034;-76
2022/08/20 06:17:18;;;;;;;;;22.75;21.00;;;;;32.00;47.43;100320.41;146599;572;46016;-77
2022/08/20 06:20:13;;;;;;;;;19.75;18.75;;;;;32.06;46.79;100309.41;146603;581;46020;-77
2022/08/20 06:23:06;;;;;;;;;19.50;16.25;;;;;32.16;46.67;100316.09;146597;579;46016;-76
2022/08/20 06:26:25;;;;;;;;;19.50;19.00;;;;;32.27;46.03;100315.59;146601;630;46020;-76
2022/08/20 06:29:25;;;;;;;;;20.00;19.00;;;;;32.24;44.66;100299.66;146600;618;46921;-75
2022/08/20 06:32:32;;;;;;;;;20.00;18.25;;;;;32.35;45.48;100320.66;146602;588;46010;-77
2022/08/20 06:35:28;;;;;;;;;17.25;15.50;;;;;32.38;45.83;100304.41;146600;579;46017;-81
2022/08/20 06:38:24;;;;;;;;;20.75;18.50;;;;;32.55;45.80;100317.06;146606;563;46012;-79
2022/08/20 06:41:23;;;;;;;;;18.75;18.50;;;;;32.68;44.65;100310.22;146598;568;46016;-77
2022/08/20 06:44:17;;;;;;;;;21.50;20.75;;;;;32.74;44.02;100303.66;146606;593;46010;-80
2022/08/20 06:47:12;;;;;;;;;20.50;19.75;;;;;32.81;45.18;100307.81;146601;610;46016;-79
2022/08/20 06:50:30;;;;;;;;;18.00;17.25;;;;;32.85;44.40;100314.75;146602;564;46013;-76
2022/08/20 06:53:27;;;;;;;;;14.75;14.75;;;;;32.80;43.02;100323.03;146598;601;46016;-78
2022/08/20 06:56:28;;;;;;;;;19.75;17.50;;;;;32.65;43.20;100329.13;146600;574;46011;-78
2022/08/20 06:59:28;;;;;;;;;19.50;19.50;;;;;32.58;44.79;100319.59;146597;574;47016;-78
2022/08/20 07:02:32;;;;;;;;;19.25;18.25;;;;;32.67;45.67;100324.56;146606;610;45020;-78
2022/08/20 07:05:26;;;;;;;;;18.75;18.50;;;;;32.86;47.04;100325.41;146596;639;46017;-77
2022/08/20 07:08:23;;;;;;;;;19.25;18.50;;;;;32.98;46.54;100324.00;146602;577;47010;-79
2022/08/20 07:11:20;;;;;;;;;17.25;17.25;;;;;33.09;45.38;100334.25;146601;616;46017;-78
2022/08/20 07:14:19;;;;;;;;;18.75;16.50;;;;;32.38;44.67;100191.72;146604;569;46020;-78
2022/08/20 07:17:15;;;;;;;;;19.50;19.00;;;;;33.23;44.22;100315.63;146612;601;46012;-79
2022/08/20 07:20:28;;;;;;;;;34.25;30.75;;;;;33.19;42.33;100305.97;146612;599;46010;-74
2022/08/20 07:23:30;;;;;;;;;21.75;19.75;;;;;33.28;41.51;100324.31;146609;760;46012;-79
2022/08/20 07:26:28;;;;;;;;;19.75;18.25;;;;;33.20;42.20;100312.22;146612;692;46010;-79
2022/08/20 07:32:32;;;;;;;;;21.50;19.50;;;;;33.19;43.37;100310.47;146606;569;46012;-79
2022/08/20 07:32:54;;;;;;;;;23.50;21.25;;;;;33.33;43.91;100314.22;146612;575;46020;-77
2022/08/20 07:35:49;;;;;;;;;26.25;23.75;;;;;33.52;43.63;100318.69;146611;578;46917;-79
2022/08/20 07:38:49;;;;;;;;;20.00;20.00;;;;;33.71;44.17;100326.69;146614;573;46020;-76
2022/08/20 07:41:44;;;;;;;;;21.50;19.25;;;;;33.80;43.63;100331.59;146610;573;46032;-78
2022/08/20 07:45:09;;;;;;;;;18.00;15.50;;;;;33.89;42.75;100324.87;146608;598;48010;-80
2022/08/20 07:48:24;;;;;;;;;21.75;20.75;;;;;31.86;44.36;99982.28;146608;650;46017;-77
2022/08/20 07:51:24;;;;;;;;;18.50;18.50;;;;;33.94;43.48;100345.22;146609;645;46010;-77
2022/08/20 07:54:25;;;;;;;;;23.75;23.25;;;;;33.93;44.20;100350.69;146608;586;46016;-75
2022/08/20 07:57:19;;;;;;;;;20.50;19.50;;;;;33.97;44.89;100346.88;146615;635;46011;-76
2022/08/20 08:00:18;;;;;;;;;23.00;20.25;;;;;34.05;43.71;100357.25;146613;594;45916;-77
2022/08/20 08:03:13;;;;;;;;;20.75;20.75;;;;;34.11;45.88;100347.03;146612;625;46010;-76
2022/08/20 08:06:11;;;;;;;;;19.50;19.00;;;;;34.26;45.95;100354.31;146607;577;46016;-76
2022/08/20 08:09:23;;;;;;;;;18.50;17.75;;;;;34.40;45.06;100337.44;146612;605;46010;-77
2022/08/20 08:12:25;;;;;;;;;19.50;18.75;;;;;34.58;44.06;100345.47;146611;598;46013;-76
2022/08/20 08:15:33;;;;;;;;;20.00;17.75;;;;;34.74;43.78;100349.09;146616;569;46010;-78
2022/08/20 08:18:44;;;;;;;;;17.50;17.50;;;;;34.74;42.70;100332.03;146608;683;46017;-79
2022/08/20 08:21:40;;;;;;;;;17.75;17.75;;;;;34.72;41.88;100326.75;146614;615;46010;-80
2022/08/20 08:24:43;;;;;;;;;;;;;;;;;;;;;
2022/08/20 08:27:42;;;;;;;;;17.00;16.75;;;;;34.59;40.44;100313.09;146615;588;45027;-73
2022/08/20 08:30:34;;;;;;;;;21.75;20.25;;;;;34.32;41.34;100317.25;146608;571;46016;-79
2022/08/20 08:33:41;;;;;;;;;22.00;20.00;;;;;32.73;42.56;100138.16;146603;645;46020;-81
2022/08/20 08:36:34;;;;;;;;;19.75;17.50;;;;;33.64;43.86;100301.06;146610;569;46012;-77
2022/08/20 08:39:37;;;;;;;;;19.75;17.00;;;;;33.60;43.80;100315.63;146608;581;47020;-77
2022/08/20 08:42:47;;;;;;;;;19.75;19.75;;;;;33.69;44.37;100323.22;146610;566;46012;-78
2022/08/20 08:46:03;;;;;;;;;19.75;17.75;;;;;31.68;43.38;99952.78;146612;590;46020;-80
2022/08/20 08:49:03;;;;;;;;;21.25;19.00;;;;;33.78;42.58;100322.75;146609;595;46013;-79
2022/08/20 08:52:21;;;;;;;;;19.75;19.00;;;;;33.42;42.98;100309.31;146611;565;46012;-77
2022/08/20 08:55:42;;;;;;;;;;;;;;;;;;;;;
2022/08/20 08:58:38;;;;;;;;;19.00;18.25;;;;;33.33;45.56;100316.03;146610;597;46010;-77
2022/08/20 09:01:44;;;;;;;;;18.50;17.50;;;;;33.61;45.33;100312.84;146609;637;46916;-77
2022/08/20 09:04:50;;;;;;;;;22.00;20.00;;;;;34.10;44.50;100304.97;146610;632;47020;-77
2022/08/20 09:07:56;;;;;;;;;22.75;18.75;;;;;32.41;42.63;99956.31;146613;585;46012;-74
2022/08/20 09:10:58;;;;;;;;;20.75;19.50;;;;;34.65;40.46;100284.97;146615;598;46011;-76
2022/08/20 09:14:01;;;;;;;;;18.50;16.25;;;;;34.89;42.22;100293.47;146612;600;45916;-76
2022/08/20 09:16:55;;;;;;;;;14.25;14.25;;;;;35.07;40.07;100289.75;146629;583;45013;-75
2022/08/20 09:19:51;;;;;;;;;17.50;16.00;;;;;35.16;40.70;100275.75;146627;631;46012;-79
2022/08/20 09:22:46;;;;;;;;;17.50;15.75;;;;;35.05;38.97;100293.50;146629;569;45020;-79
2022/08/20 09:25:38;;;;;;;;;17.25;14.50;;;;;34.90;37.61;100281.75;146624;579;45016;-79
2022/08/20 09:28:31;;;;;;;;;17.00;17.00;;;;;34.75;39.24;100279.94;146626;576;45010;-79
2022/08/20 09:31:28;;;;;;;;;15.50;14.50;;;;;34.75;38.05;100279.94;146626;573;45917;-81
2022/08/20 09:34:23;;;;;;;;;17.25;14.75;;;;;34.83;38.70;100267.78;146630;634;46010;-78
2022/08/20 09:37:30;;;;;;;;;10.50;10.50;;;;;34.64;38.18;100272.44;146623;614;46012;-83
2022/08/20 09:40:26;;;;;;;;;16.00;16.00;;;;;34.63;36.95;100268.88;146627;604;46010;-79
2022/08/20 09:43:22;;;;;;;;;17.75;17.75;;;;;34.65;37.15;100271.50;146624;602;45016;-78
2022/08/20 09:46:21;;;;;;;;;16.50;15.75;;;;;34.70;37.98;100272.97;146628;617;46010;-80
2022/08/20 09:49:13;;;;;;;;;12.00;11.75;;;;;34.85;36.33;100267.69;146625;610;45034;-75
2022/08/20 09:52:28;;;;;;;;;15.25;14.50;;;;;34.91;36.11;100276.28;146628;628;45020;-78
2022/08/20 09:55:47;;;;;;;;;12.50;12.50;;;;;33.23;37.11;100000.41;146621;619;47917;-77
2022/08/20 09:58:56;;;;;;;;;15.00;13.25;;;;;34.55;36.24;100287.31;146628;565;46020;-80
2022/08/20 10:01:57;;;;;;;;;13.75;12.75;;;;;34.46;35.69;100259.03;146624;626;45017;-75
2022/08/20 10:04:57;;;;;;;;;14.25;13.00;;;;;34.38;37.45;100247.81;146627;563;45020;-80
2022/08/20 10:07:49;;;;;;;;;13.25;12.50;;;;;34.44;35.47;100269.00;146625;585;45016;-75
2022/08/20 10:10:52;;;;;;;;;12.75;11.75;;;;;34.48;36.10;100248.16;146627;579;45020;-76
2022/08/20 10:13:51;;;;;;;;;16.75;15.75;;;;;34.48;35.20;100254.41;146628;616;45016;-76
2022/08/20 10:16:48;;;;;;;;;17.75;15.50;;;;;34.61;36.50;100251.97;146607;589;46021;-78
2022/08/20 10:19:42;;;;;;;;;14.75;14.75;;;;;34.76;35.36;100247.50;146600;589;46016;-78
2022/08/20 10:22:50;;;;;;;;;;;;;;;;;;;;;
2022/08/20 10:25:54;;;;;;;;;15.00;14.00;;;;;34.67;34.60;100235.47;146603;584;46915;-79
2022/08/20 10:29:00;;;;;;;;;;;;;;;;;;;;;
2022/08/20 10:31:57;;;;;;;;;17.50;15.50;;;;;34.59;34.70;100224.25;146599;662;47014;-77
2022/08/20 10:34:57;;;;;;;;;14.75;14.00;;;;;34.62;33.53;100224.09;146606;590;46010;-78
2022/08/20 10:37:55;;;;;;;;;14.50;14.25;;;;;34.69;34.59;100203.06;146600;557;46029;-77
2022/08/20 10:41:02;;;;;;;;;13.25;12.50;;;;;34.82;34.29;100217.53;146605;662;46021;-81
2022/08/20 10:44:04;;;;;;;;;16.00;13.75;;;;;34.92;34.07;100216.06;146603;617;46016;-77
2022/08/20 10:47:08;;;;;;;;;15.00;14.50;;;;;35.11;35.41;100213.19;146606;565;46020;-78
2022/08/20 10:50:10;;;;;;;;;15.50;15.00;;;;;35.32;35.08;100218.25;146600;569;46012;-75
2022/08/20 10:53:06;;;;;;;;;15.00;13.75;;;;;35.50;35.18;100205.50;146606;565;46010;-77
2022/08/20 10:56:10;;;;;;;;;14.00;14.00;;;;;35.70;35.35;100207.88;146600;611;46036;-76
2022/08/20 10:59:05;;;;;;;;;14.75;14.75;;;;;35.76;33.00;100217.41;146601;578;46010;-78
2022/08/20 11:02:09;;;;;;;;;14.50;13.50;;;;;35.66;33.15;100197.38;146600;583;46013;-78
2022/08/20 11:05:06;;;;;;;;;18.00;15.00;;;;;35.46;32.77;100187.78;146602;578;47010;-77
2022/08/20 11:07:58;;;;;;;;;14.50;13.75;;;;;35.34;32.63;100202.87;146598;595;46914;-79
2022/08/20 11:10:59;;;;;;;;;18.25;16.25;;;;;35.39;33.47;100204.34;146603;569;46021;-78
2022/08/20 11:13:55;;;;;;;;;16.00;15.50;;;;;35.24;33.00;100196.31;146600;581;46016;-79
2022/08/20 11:16:49;;;;;;;;;13.00;11.75;;;;;35.12;34.54;100200.59;146606;572;46010;-77
2022/08/20 11:19:56;;;;;;;;;15.50;15.00;;;;;33.34;36.27;99893.22;146601;601;46016;-81
2022/08/20 11:23:15;;;;;;;;;18.25;17.25;;;;;35.13;35.46;100188.84;146607;663;46020;-77
2022/08/20 11:26:16;;;;;;;;;20.00;19.75;;;;;35.16;35.40;100183.28;146602;584;46016;-79
2022/08/20 11:29:24;;;;;;;;;17.00;16.00;;;;;33.53;34.79;99885.88;146603;569;46020;-77
2022/08/20 11:32:20;;;;;;;;;10.75;10.75;;;;;35.35;34.40;100174.94;146604;610;46012;-78
2022/08/20 11:35:28;;;;;;;;;16.75;16.25;;;;;35.32;34.47;100185.91;146604;600;46020;-79
2022/08/20 11:38:23;;;;;;;;;15.00;15.00;;;;;35.16;35.18;100181.44;146604;695;46017;-79
2022/08/20 11:41:27;;;;;;;;;15.75;15.50;;;;;35.12;35.29;100176.34;146605;595;46010;-77
2022/08/20 11:44:19;;;;;;;;;18.50;16.75;;;;;35.09;34.36;100157.66;146598;669;46016;-76
2022/08/20 11:47:31;;;;;;;;;15.00;15.00;;;;;35.00;34.54;100163.56;146604;593;46021;-75
2022/08/20 11:50:25;;;;;;;;;19.75;18.75;;;;;34.83;35.04;100157.34;146608;586;46012;-75
2022/08/20 11:53:31;;;;;;;;;18.75;16.25;;;;;33.77;35.38;100017.16;146603;572;46020;-76
2022/08/20 11:56:26;;;;;;;;;17.75;16.25;;;;;34.94;36.81;100151.31;146600;696;46016;-80
2022/08/20 11:59:23;;;;;;;;;16.75;16.00;;;;;35.06;34.72;100138.97;146603;629;47010;-80
2022/08/20 12:02:22;;;;;;;;;16.50;16.25;;;;;35.08;34.38;100121.78;146600;624;46012;-78
2022/08/20 12:05:28;;;;;;;;;16.75;16.75;;;;;35.09;34.99;100122.63;146602;591;47020;-77
2022/08/20 12:08:33;;;;;;;;;16.00;16.00;;;;;35.10;35.15;100117.12;146599;604;46017;-77
2022/08/20 12:11:29;;;;;;;;;14.75;14.75;;;;;35.04;34.24;100130.97;146606;563;46010;-78
2022/08/20 12:14:34;;;;;;;;;18.00;17.75;;;;;35.08;34.47;100118.19;146598;572;46016;-76
2022/08/20 12:17:33;;;;;;;;;19.25;17.25;;;;;35.14;33.55;100110.63;146628;624;45913;-78
2022/08/20 12:20:32;;;;;;;;;17.25;17.25;;;;;35.28;34.64;100103.50;146627;604;45016;-77
2022/08/20 12:23:36;;;;;;;;;18.00;18.00;;;;;35.33;35.12;100099.59;146626;611;46010;-76
2022/08/20 12:26:46;;;;;;;;;14.75;14.25;;;;;35.28;34.28;100100.81;146625;573;45916;-79
2022/08/20 12:29:51;;;;;;;;;18.50;17.50;;;;;35.20;34.17;100087.78;146626;604;45013;-77
2022/08/20 12:32:57;;;;;;;;;18.00;17.75;;;;;35.28;33.98;100079.25;146626;577;45012;-76
2022/08/20 12:36:06;;;;;;;;;;;;;;;;;;;;;
2022/08/20 12:39:02;;;;;;;;;19.00;19.00;;;;;35.20;34.72;100073.47;146628;618;46013;-77
2022/08/20 12:42:01;;;;;;;;;16.25;14.75;;;;;35.08;34.53;100067.87;146627;610;45020;-78
2022/08/20 12:44:57;;;;;;;;;17.00;16.75;;;;;35.00;34.10;100070.13;146625;576;46011;-79
2022/08/20 12:48:13;;;;;;;;;18.75;17.50;;;;;35.03;34.41;100086.16;146629;602;46010;-77
2022/08/20 12:51:14;;;;;;;;;18.50;16.50;;;;;34.12;33.72;99912.09;146626;563;45915;-79
2022/08/20 12:54:10;;;;;;;;;16.50;15.50;;;;;34.97;34.04;100050.59;146629;570;45020;-78
2022/08/20 12:57:06;;;;;;;;;18.25;17.25;;;;;34.83;34.44;100052.31;146627;565;45016;-80
2022/08/20 13:00:34;;;;;;;;;;;;;;;;;;;;;
2022/08/20 13:03:27;;;;;;;;;15.75;15.75;;;;;34.93;34.22;100050.78;146627;573;45016;-77
2022/08/20 13:06:27;;;;;;;;;12.50;12.50;;;;;34.94;34.15;100057.91;146627;604;45020;-76
2022/08/20 13:09:22;;;;;;;;;16.50;15.75;;;;;35.04;34.81;100049.28;146626;673;45021;-75
2022/08/20 13:12:35;;;;;;;;;15.50;13.50;;;;;35.06;33.74;100044.69;146628;581;46012;-82
2022/08/20 13:15:30;;;;;;;;;14.25;13.50;;;;;34.90;33.20;100032.12;146618;659;46016;-78
2022/08/20 13:18:37;;;;;;;;;18.50;16.50;;;;;34.93;34.19;100029.22;146603;619;46010;-81
2022/08/20 13:21:41;;;;;;;;;15.25;14.50;;;;;34.90;34.93;100021.34;146606;578;46012;-77
2022/08/20 13:24:49;;;;;;;;;14.00;14.00;;;;;34.70;34.14;100043.22;146601;575;46010;-73
2022/08/20 13:27:43;;;;;;;;;15.25;14.75;;;;;34.65;33.78;100007.63;146601;646;46016;-77
2022/08/20 13:30:42;;;;;;;;;18.00;17.75;;;;;34.68;35.08;100019.09;146602;577;46012;-74
2022/08/20 13:33:36;;;;;;;;;11.50;11.50;;;;;34.64;32.82;100012.16;146598;571;46016;-73
2022/08/20 13:36:39;;;;;;;;;;;;;;;;;;;;;
2022/08/20 13:39:33;;;;;;;;;15.50;15.50;;;;;34.68;33.95;99996.69;146601;569;46031;-72
2022/08/20 13:42:32;;;;;;;;;18.25;16.50;;;;;34.67;34.40;99994.91;146605;601;46010;-75
2022/08/20 13:45:36;;;;;;;;;16.25;16.25;;;;;34.71;33.62;99996.50;146605;640;46017;-71
2022/08/20 13:48:38;;;;;;;;;15.00;15.00;;;;;34.76;33.93;99986.28;146600;655;46914;-75
2022/08/20 13:51:40;;;;;;;;;16.25;14.25;;;;;34.90;33.94;99980.94;146602;577;46017;-73
2022/08/20 13:54:43;;;;;;;;;18.50;17.75;;;;;34.93;32.86;99980.75;146603;596;46012;-73
2022/08/20 13:57:40;;;;;;;;;18.50;17.00;;;;;34.89;33.52;99984.59;146597;580;46012;-75
2022/08/20 14:00:56;;;;;;;;;18.50;16.25;;;;;34.83;33.51;99979.59;146607;588;46010;-69
2022/08/20 14:03:49;;;;;;;;;15.75;15.75;;;;;34.67;33.77;99973.38;146605;588;46016;-73
2022/08/20 14:06:45;;;;;;;;;13.75;13.75;;;;;34.62;33.52;99981.75;146604;584;46010;-75
2022/08/20 14:09:57;;;;;;;;;16.75;16.25;;;;;34.33;34.33;99966.44;146599;580;46016;-75
2022/08/20 14:12:49;;;;;;;;;15.50;13.75;;;;;34.30;34.13;99962.13;146608;576;46021;-73